createdAt,value
2022-11-29T00:02:04.721Z,47.10
2022-11-29T00:04:33.110Z,42.92
2022-11-29T00:07:01.375Z,40.95
2022-11-29T00:09:29.602Z,37.72
2022-11-29T00:11:57.964Z,39.17
2022-11-29T00:14:27.696Z,34.42
2022-11-29T00:16:59.484Z,29.90
2022-11-29T00:19:28.199Z,26.10
2022-11-29T00:21:56.567Z,34.00
2022-11-29T00:24:24.743Z,36.42
2022-11-29T00:26:53.097Z,37.10
2022-11-29T00:29:21.720Z,52.42
2022-11-29T00:31:50.026Z,34.60
2022-11-29T00:34:18.170Z,41.03
2022-11-29T00:36:46.442Z,46.13
2022-11-29T00:39:14.863Z,43.45
2022-11-29T00:41:43.367Z,46.22
2022-11-29T00:44:16.729Z,47.45
2022-11-29T00:46:48.931Z,43.28
2022-11-29T00:49:17.778Z,43.83
2022-11-29T00:51:46.991Z,41.58
2022-11-29T00:54:15.333Z,47.60
2022-11-29T00:56:43.682Z,49.90
2022-11-29T00:59:11.983Z,46.97
2022-11-29T01:01:40.288Z,47.03
2022-11-29T01:04:08.434Z,42.03
2022-11-29T01:06:36.739Z,42.70
2022-11-29T01:09:05.983Z,40.95
2022-11-29T01:11:34.427Z,49.33
2022-11-29T01:14:04.075Z,41.33
2022-11-29T01:16:32.802Z,48.92
2022-11-29T01:19:01.204Z,43.97
2022-11-29T01:21:29.740Z,58.17
2022-11-29T01:23:58.041Z,47.20
2022-11-29T01:26:28.937Z,38.85
2022-11-29T01:28:58.669Z,41.63
2022-11-29T01:31:35.264Z,44.38
2022-11-29T01:34:05.549Z,44.35
2022-11-29T01:36:35.136Z,42.92
2022-11-29T01:39:05.677Z,44.22
2022-11-29T01:41:36.351Z,42.70
2022-11-29T01:44:06.618Z,41.03
2022-11-29T01:46:38.151Z,35.80
2022-11-29T01:49:13.430Z,55.88
2022-11-29T01:51:45.383Z,40.72
2022-11-29T01:54:14.464Z,44.60
2022-11-29T01:56:43.790Z,41.35
2022-11-29T01:59:16.388Z,43.47
2022-11-29T02:01:44.786Z,39.85
2022-11-29T02:04:13.197Z,48.08
2022-11-29T02:06:43.059Z,40.97
2022-11-29T02:09:23.218Z,38.97
2022-11-29T02:12:03.798Z,51.40
2022-11-29T02:14:58.143Z,52.03
2022-11-29T02:17:52.616Z,47.85
2022-11-29T02:21:05.470Z,50.28
2022-11-29T02:23:45.539Z,56.20
2022-11-29T02:26:22.702Z,40.78
2022-11-29T02:29:09.313Z,47.72
2022-11-29T02:32:03.202Z,40.53
2022-11-29T02:34:52.698Z,36.53
2022-11-29T02:37:44.055Z,41.95
2022-11-29T02:40:36.031Z,43.70
2022-11-29T02:43:22.625Z,38.83
2022-11-29T02:45:50.897Z,51.88
2022-11-29T02:48:53.651Z,51.47
2022-11-29T02:54:14.532Z,39.35
2022-11-29T02:57:02.722Z,38.25
2022-11-29T03:00:07.957Z,37.90
2022-11-29T03:02:52.142Z,40.65
2022-11-29T03:05:49.595Z,40.38
2022-11-29T03:08:52.879Z,43.28
2022-11-29T03:11:38.764Z,35.45
2022-11-29T03:14:26.146Z,42.88
2022-11-29T03:17:09.389Z,35.00
2022-11-29T03:20:22.280Z,33.60
2022-11-29T03:23:02.698Z,38.60
2022-11-29T03:25:39.380Z,47.08
2022-11-29T03:28:18.527Z,36.65
2022-11-29T03:31:12.054Z,31.20
2022-11-29T03:33:59.544Z,39.60
2022-11-29T03:36:50.391Z,32.42
2022-11-29T03:39:49.576Z,31.02
2022-11-29T03:42:38.040Z,28.50
2022-11-29T03:45:09.279Z,43.90
2022-11-29T03:48:00.613Z,33.75
2022-11-29T03:50:36.953Z,32.35
2022-11-29T03:53:29.528Z,25.00
2022-11-29T03:59:03.802Z,29.20
2022-11-29T04:01:50.393Z,25.40
2022-11-29T04:04:49.458Z,21.58
2022-11-29T04:07:54.596Z,17.23
2022-11-29T04:10:44.289Z,24.20
2022-11-29T04:13:24.938Z,30.00
2022-11-29T04:16:22.325Z,19.15
2022-11-29T04:19:11.871Z,27.73
2022-11-29T04:21:49.446Z,21.98
2022-11-29T04:24:42.481Z,20.45
2022-11-29T04:27:35.736Z,26.55
2022-11-29T04:30:13.626Z,27.98
2022-11-29T04:32:53.878Z,24.98
2022-11-29T04:35:30.022Z,19.15
2022-11-29T04:38:01.257Z,19.25
2022-11-29T04:40:47.933Z,23.42
2022-11-29T04:43:51.783Z,22.52
2022-11-29T04:46:47.697Z,21.25
2022-11-29T04:49:40.278Z,20.55
2022-11-29T04:52:27.818Z,21.48
2022-11-29T04:55:33.132Z,23.30
2022-11-29T04:58:13.486Z,23.52
2022-11-29T05:01:06.888Z,16.67
2022-11-29T05:03:55.440Z,28.00
2022-11-29T05:06:30.686Z,22.10
2022-11-29T05:09:20.837Z,26.80
2022-11-29T05:11:51.963Z,29.50
2022-11-29T05:14:32.324Z,29.88
2022-11-29T05:17:31.314Z,26.60
2022-11-29T05:20:17.292Z,28.42
2022-11-29T05:22:54.795Z,26.65
2022-11-29T05:25:23.026Z,27.48
2022-11-29T05:28:10.065Z,29.23
2022-11-29T05:31:00.149Z,26.73
2022-11-29T05:34:05.445Z,23.98
2022-11-29T05:36:41.506Z,26.33
2022-11-29T05:39:32.993Z,26.75
2022-11-29T05:42:32.926Z,25.58
2022-11-29T05:45:17.522Z,38.30
2022-11-29T05:48:13.813Z,18.15
2022-11-29T05:50:50.034Z,19.40
2022-11-29T05:53:36.780Z,27.05
2022-11-29T05:56:42.348Z,28.17
2022-11-29T05:59:32.694Z,18.92
2022-11-29T06:02:35.711Z,27.88
2022-11-29T06:05:17.908Z,28.60
2022-11-29T06:08:07.901Z,24.02
2022-11-29T06:10:40.490Z,26.65
2022-11-29T06:13:38.073Z,24.92
2022-11-29T06:16:34.917Z,26.73
2022-11-29T06:19:31.005Z,22.80
2022-11-29T06:22:20.868Z,21.00
2022-11-29T06:25:24.349Z,26.52
2022-11-29T06:28:14.094Z,22.67
2022-11-29T06:31:24.195Z,24.45
2022-11-29T06:34:02.922Z,25.13
2022-11-29T06:37:01.216Z,23.85
2022-11-29T06:39:29.982Z,28.77
2022-11-29T06:41:58.109Z,31.85
2022-11-29T06:44:26.840Z,29.58
2022-11-29T06:47:06.509Z,24.10
2022-11-29T06:50:07.285Z,30.17
2022-11-29T06:52:49.075Z,30.58
2022-11-29T06:55:43.262Z,19.33
2022-11-29T06:58:48.785Z,23.90
2022-11-29T07:01:24.443Z,27.80
2022-11-29T07:04:11.164Z,29.90
2022-11-29T07:06:39.827Z,31.38
2022-11-29T07:09:18.764Z,32.10
2022-11-29T07:11:48.533Z,26.13
2022-11-29T07:14:17.221Z,21.65
2022-11-29T07:17:26.285Z,31.77
2022-11-29T07:20:03.884Z,31.98
2022-11-29T07:22:38.226Z,19.90
2022-11-29T07:25:18.490Z,26.10
2022-11-29T07:28:23.563Z,23.90
2022-11-29T07:30:55.810Z,15.50
2022-11-29T07:36:27.090Z,18.58
2022-11-29T07:39:13.752Z,22.15
2022-11-29T07:42:08.012Z,20.08
2022-11-29T07:45:12.029Z,18.52
2022-11-29T07:47:40.485Z,22.08
2022-11-29T07:50:09.328Z,18.75
2022-11-29T07:52:37.614Z,20.63
2022-11-29T07:55:06.547Z,24.63
2022-11-29T07:57:34.699Z,23.10
2022-11-29T08:00:03.225Z,25.88
2022-11-29T08:02:39.537Z,20.25
2022-11-29T08:05:09.235Z,16.75
2022-11-29T08:07:41.860Z,18.90
2022-11-29T08:10:15.714Z,12.02
2022-11-29T08:12:45.918Z,18.08
2022-11-29T08:15:14.506Z,13.43
2022-11-29T08:17:42.827Z,18.42
2022-11-29T08:20:12.338Z,13.50
2022-11-29T08:22:40.785Z,15.02
2022-11-29T08:25:10.314Z,14.25
2022-11-29T08:27:39.276Z,12.07
2022-11-29T08:30:08.571Z,11.50
2022-11-29T08:32:36.703Z,17.42
2022-11-29T08:35:05.062Z,13.32
2022-11-29T08:37:33.533Z,14.05
2022-11-29T08:40:01.841Z,15.88
2022-11-29T08:42:29.945Z,11.57
2022-11-29T08:44:58.199Z,13.15
2022-11-29T08:47:26.707Z,12.68
2022-11-29T08:49:55.295Z,16.25
2022-11-29T08:52:23.494Z,22.45
2022-11-29T08:54:51.951Z,14.40
2022-11-29T09:00:11.955Z,13.30
2022-11-29T09:05:09.799Z,17.60
2022-11-29T09:07:38.719Z,15.38
2022-11-29T09:12:40.218Z,17.95
2022-11-29T09:15:10.450Z,29.02
2022-11-29T09:17:38.676Z,23.88
2022-11-29T09:20:07.692Z,18.10
2022-11-29T09:22:36.106Z,19.63
2022-11-29T09:25:04.535Z,30.48
2022-11-29T09:27:33.044Z,25.52
2022-11-29T09:30:01.175Z,20.90
2022-11-29T09:32:29.382Z,28.50
2022-11-29T09:34:57.633Z,27.50
2022-11-29T09:37:25.848Z,24.58
2022-11-29T09:39:54.075Z,21.80
2022-11-29T09:42:56.762Z,18.10
2022-11-29T09:45:33.277Z,22.92
2022-11-29T09:48:28.954Z,22.83
2022-11-29T09:51:46.225Z,23.63
2022-11-29T09:54:36.134Z,21.55
2022-11-29T09:57:10.512Z,18.63
2022-11-29T09:59:46.908Z,20.75
2022-11-29T10:02:38.688Z,19.38
2022-11-29T10:05:17.774Z,27.25
2022-11-29T10:08:09.472Z,28.17
2022-11-29T10:10:46.605Z,17.95
2022-11-29T10:13:25.628Z,15.50
2022-11-29T10:16:25.825Z,24.27
2022-11-29T10:19:05.021Z,18.92
2022-11-29T10:21:39.226Z,19.50
2022-11-29T10:24:18.471Z,17.65
2022-11-29T10:26:47.552Z,22.85
2022-11-29T10:29:17.321Z,19.08
2022-11-29T10:31:47.965Z,19.17
2022-11-29T10:34:21.670Z,15.57
2022-11-29T10:36:57.150Z,26.30
2022-11-29T10:39:37.438Z,20.65
2022-11-29T10:42:08.848Z,13.95
2022-11-29T10:44:37.693Z,13.82
2022-11-29T10:47:10.673Z,12.10
2022-11-29T10:49:39.927Z,24.40
2022-11-29T10:52:21.942Z,22.45
2022-11-29T10:54:54.531Z,13.25
2022-11-29T10:57:23.977Z,16.75
2022-11-29T11:00:09.544Z,18.67
2022-11-29T11:02:38.559Z,12.52
2022-11-29T11:05:15.054Z,11.32
2022-11-29T11:07:43.844Z,13.68
2022-11-29T11:10:32.255Z,13.30
2022-11-29T11:13:07.250Z,8.73
2022-11-29T11:15:35.791Z,11.93
2022-11-29T11:18:07.525Z,11.15
2022-11-29T11:20:42.360Z,13.43
2022-11-29T11:23:30.532Z,7.78
2022-11-29T11:26:00.456Z,7.55
2022-11-29T11:28:37.287Z,7.22
2022-11-29T11:31:08.974Z,6.43
2022-11-29T11:38:54.096Z,7.65
2022-11-29T11:41:28.296Z,14.30
2022-11-29T11:44:00.302Z,19.27
2022-11-29T11:46:49.639Z,9.68
2022-11-29T11:49:36.402Z,11.27
2022-11-29T11:52:07.900Z,15.13
2022-11-29T11:54:37.531Z,9.30
2022-11-29T11:57:06.250Z,21.52
2022-11-29T11:59:34.957Z,7.40
2022-11-29T12:02:03.525Z,9.88
2022-11-29T12:04:36.454Z,6.88
2022-11-29T12:07:45.042Z,11.10
2022-11-29T12:10:23.214Z,13.07
2022-11-29T12:12:52.487Z,11.75
2022-11-29T12:15:27.875Z,19.55
2022-11-29T12:18:04.698Z,16.58
2022-11-29T12:21:05.991Z,9.90
2022-11-29T12:23:44.246Z,9.40
2022-11-29T12:26:41.185Z,11.23
2022-11-29T12:29:15.851Z,8.70
2022-11-29T12:31:52.912Z,8.35
2022-11-29T12:34:42.954Z,14.13
2022-11-29T12:37:37.656Z,11.07
2022-11-29T12:40:12.173Z,11.27
2022-11-29T12:42:46.989Z,11.95
2022-11-29T12:45:46.310Z,8.15
2022-11-29T12:48:23.867Z,5.68
2022-11-29T12:51:01.891Z,8.95
2022-11-29T12:54:15.307Z,14.63
2022-11-29T12:57:17.496Z,10.25
2022-11-29T13:00:01.841Z,6.97
2022-11-29T13:02:41.996Z,17.30
2022-11-29T13:05:33.265Z,24.65
2022-11-29T13:08:24.709Z,18.57
2022-11-29T13:10:59.333Z,8.60
2022-11-29T13:13:46.756Z,8.63
2022-11-29T13:16:26.337Z,10.38
2022-11-29T13:19:16.238Z,11.35
2022-11-29T13:22:10.892Z,7.40
2022-11-29T13:24:45.339Z,5.32
2022-11-29T13:27:23.885Z,14.85
2022-11-29T13:29:53.846Z,12.07
2022-11-29T13:32:32.340Z,11.80
2022-11-29T13:35:28.102Z,14.90
2022-11-29T13:38:07.903Z,9.23
2022-11-29T13:40:54.952Z,5.43
2022-11-29T13:43:57.173Z,11.93
2022-11-29T13:49:00.023Z,16.17
2022-11-29T13:51:37.225Z,15.32
2022-11-29T13:54:31.321Z,15.50
2022-11-29T13:57:10.835Z,13.75
2022-11-29T13:59:47.121Z,10.93
2022-11-29T14:02:30.443Z,7.15
2022-11-29T14:04:59.099Z,13.23
2022-11-29T14:07:27.444Z,11.95
2022-11-29T14:10:28.628Z,7.68
2022-11-29T14:12:58.635Z,12.40
2022-11-29T14:15:30.080Z,7.78
2022-11-29T14:18:01.585Z,7.75
2022-11-29T14:20:29.877Z,9.20
2022-11-29T14:23:06.964Z,10.35
2022-11-29T14:25:51.572Z,7.88
2022-11-29T14:28:23.285Z,14.93
2022-11-29T14:30:56.249Z,8.27
2022-11-29T14:33:58.010Z,9.23
2022-11-29T14:36:39.217Z,10.25
2022-11-29T14:39:42.273Z,18.45
2022-11-29T14:42:22.658Z,11.57
2022-11-29T14:44:54.181Z,11.13
2022-11-29T14:47:27.801Z,13.15
2022-11-29T14:49:58.234Z,9.75
2022-11-29T14:52:38.377Z,12.27
2022-11-29T14:55:28.584Z,6.70
2022-11-29T14:58:02.789Z,7.25
2022-11-29T15:00:55.293Z,8.55
2022-11-29T15:03:35.238Z,8.65
2022-11-29T15:06:09.452Z,8.13
2022-11-29T15:09:09.415Z,13.57
2022-11-29T15:11:58.330Z,9.55
2022-11-29T15:14:40.763Z,7.20
2022-11-29T15:17:49.334Z,17.05
2022-11-29T15:20:54.990Z,8.15
2022-11-29T15:23:23.372Z,8.32
2022-11-29T15:26:00.994Z,10.85
2022-11-29T15:28:31.013Z,16.33
2022-11-29T15:31:09.674Z,6.40
2022-11-29T15:33:41.940Z,10.20
2022-11-29T15:37:02.895Z,8.40
2022-11-29T15:39:37.829Z,6.13
2022-11-29T15:42:12.539Z,8.48
2022-11-29T15:44:48.933Z,8.32
2022-11-29T15:47:25.853Z,5.85
2022-11-29T15:49:55.182Z,20.65
2022-11-29T15:52:34.186Z,16.77
2022-11-29T15:55:06.114Z,10.10
2022-11-29T15:57:41.549Z,11.35
2022-11-29T16:00:17.348Z,11.68
2022-11-29T16:03:02.732Z,10.25
2022-11-29T16:05:40.419Z,7.72
2022-11-29T16:08:17.188Z,12.77
2022-11-29T16:10:50.892Z,28.65
2022-11-29T16:13:40.544Z,55.92
2022-11-29T16:16:11.769Z,8.65
2022-11-29T16:18:42.701Z,28.02
2022-11-29T16:21:29.575Z,9.07
2022-11-29T16:23:58.753Z,19.70
2022-11-29T16:26:40.585Z,25.70
2022-11-29T16:29:29.286Z,23.35
2022-11-29T16:31:58.183Z,8.07
2022-11-29T16:34:31.327Z,9.63
2022-11-29T16:37:20.937Z,17.25
2022-11-29T16:39:52.237Z,13.23
2022-11-29T16:42:32.296Z,12.60
2022-11-29T16:45:07.556Z,6.88
2022-11-29T16:47:53.422Z,11.10
2022-11-29T16:50:23.186Z,7.65
2022-11-29T16:52:56.313Z,11.65
2022-11-29T16:55:25.584Z,8.70
2022-11-29T16:57:53.927Z,20.65
2022-11-29T17:00:35.585Z,11.77
2022-11-29T17:03:04.120Z,12.15
2022-11-29T17:05:32.483Z,13.38
2022-11-29T17:08:01.591Z,11.02
2022-11-29T17:10:30.010Z,35.03
2022-11-29T17:12:58.546Z,31.77
2022-11-29T17:15:26.932Z,18.80
2022-11-29T17:17:55.081Z,10.13
2022-11-29T17:20:23.550Z,15.13
2022-11-29T17:22:51.689Z,27.42
2022-11-29T17:26:15.477Z,19.98
2022-11-29T17:28:45.415Z,7.30
2022-11-29T17:31:16.547Z,13.50
2022-11-29T17:33:45.193Z,10.27
2022-11-29T17:36:15.944Z,20.83
2022-11-29T17:38:45.688Z,14.63
2022-11-29T17:41:25.057Z,18.27
2022-11-29T17:43:55.376Z,11.63
2022-11-29T17:46:32.370Z,10.50
2022-11-29T17:49:03.184Z,18.83
2022-11-29T17:54:21.177Z,12.90
2022-11-29T17:56:49.917Z,12.00
2022-11-29T17:59:18.568Z,11.57
2022-11-29T18:01:47.476Z,15.80
2022-11-29T18:04:16.096Z,18.23
2022-11-29T18:06:45.127Z,14.95
2022-11-29T18:09:13.777Z,40.05
2022-11-29T18:11:48.068Z,67.65
2022-11-29T18:14:23.468Z,33.83
2022-11-29T18:16:52.624Z,50.85
2022-11-29T18:19:22.930Z,66.10
2022-11-29T18:21:51.765Z,62.42
2022-11-29T18:24:20.415Z,32.80
2022-11-29T18:26:49.186Z,31.90
2022-11-29T18:29:17.356Z,30.60
2022-11-29T18:31:47.011Z,29.05
2022-11-29T18:34:15.587Z,26.58
2022-11-29T18:36:48.897Z,55.75
2022-11-29T18:39:19.921Z,69.82
2022-11-29T18:41:51.244Z,71.25
2022-11-29T18:44:21.945Z,59.28
2022-11-29T18:46:50.572Z,74.57
2022-11-29T18:49:19.405Z,52.08
2022-11-29T18:51:48.830Z,37.65
2022-11-29T18:54:18.730Z,34.53
2022-11-29T18:56:47.480Z,24.30
2022-11-29T18:59:24.460Z,28.80
2022-11-29T19:01:53.055Z,20.17
2022-11-29T19:04:22.003Z,27.58
2022-11-29T19:06:50.543Z,29.38
2022-11-29T19:09:21.707Z,16.88
2022-11-29T19:11:51.235Z,22.80
2022-11-29T19:14:20.259Z,19.05
2022-11-29T19:16:49.885Z,17.80
2022-11-29T19:19:18.438Z,31.05
2022-11-29T19:21:47.291Z,33.53
2022-11-29T19:24:17.225Z,27.88
2022-11-29T19:26:47.549Z,35.10
2022-11-29T19:29:16.490Z,17.08
2022-11-29T19:31:44.769Z,34.63
2022-11-29T19:34:13.059Z,49.60
2022-11-29T19:36:42.244Z,50.47
2022-11-29T19:39:11.740Z,62.00
2022-11-29T19:41:40.217Z,51.08
2022-11-29T19:44:09.122Z,55.53
2022-11-29T19:46:47.666Z,40.40
2022-11-29T19:49:16.399Z,29.83
2022-11-29T19:51:44.852Z,52.70
2022-11-29T19:54:13.341Z,25.48
2022-11-29T19:56:41.885Z,29.58
2022-11-29T19:59:10.443Z,31.55
2022-11-29T20:01:41.883Z,20.50
2022-11-29T20:04:12.555Z,32.45
2022-11-29T20:06:41.685Z,22.63
2022-11-29T20:09:10.695Z,21.33
2022-11-29T20:11:39.198Z,17.23
2022-11-29T20:14:08.306Z,25.98
2022-11-29T20:16:37.021Z,19.77
2022-11-29T20:19:12.569Z,15.65
2022-11-29T20:21:47.225Z,14.60
2022-11-29T20:24:17.562Z,26.42
2022-11-29T20:26:48.790Z,23.90
2022-11-29T20:29:17.629Z,39.55
2022-11-29T20:31:50.743Z,27.95
2022-11-29T20:34:20.701Z,36.60
2022-11-29T20:37:13.721Z,21.55
2022-11-29T20:40:14.704Z,16.35
2022-11-29T20:43:03.600Z,28.92
2022-11-29T20:45:32.494Z,37.35
2022-11-29T20:48:23.098Z,30.83
2022-11-29T20:50:59.111Z,17.33
2022-11-29T20:53:35.353Z,19.98
2022-11-29T20:56:05.502Z,26.25
2022-11-29T20:58:34.671Z,23.38
2022-11-29T21:01:12.409Z,15.20
2022-11-29T21:03:41.477Z,11.60
2022-11-29T21:06:10.004Z,10.07
2022-11-29T21:08:38.644Z,16.08
2022-11-29T21:11:09.684Z,12.80
2022-11-29T21:13:38.457Z,18.27
2022-11-29T21:16:07.268Z,18.70
2022-11-29T21:18:36.286Z,15.35
2022-11-29T21:21:36.919Z,33.83
2022-11-29T21:24:05.401Z,30.08
2022-11-29T21:26:50.002Z,23.10
2022-11-29T21:29:23.184Z,18.48
2022-11-29T21:31:54.547Z,18.35
2022-11-29T21:34:23.149Z,14.65
2022-11-29T21:36:57.452Z,28.00
2022-11-29T21:39:32.513Z,21.73
2022-11-29T21:42:02.154Z,23.05
2022-11-29T21:44:30.634Z,31.77
2022-11-29T21:46:59.160Z,24.02
2022-11-29T21:49:27.705Z,28.50
2022-11-29T21:51:57.477Z,25.58
2022-11-29T21:54:30.428Z,36.70
2022-11-29T21:56:59.284Z,24.25
2022-11-29T21:59:27.777Z,20.58
2022-11-29T22:01:56.816Z,28.08
2022-11-29T22:04:25.222Z,23.00
2022-11-29T22:06:53.907Z,28.15
2022-11-29T22:09:22.327Z,33.80
2022-11-29T22:11:51.010Z,29.02
2022-11-29T22:14:19.690Z,54.47
2022-11-29T22:16:56.352Z,30.90
2022-11-29T22:19:34.794Z,46.97
2022-11-29T22:22:05.449Z,37.70
2022-11-29T22:24:36.747Z,31.65
2022-11-29T22:27:05.484Z,35.35
2022-11-29T22:29:34.121Z,28.70
2022-11-29T22:32:02.570Z,28.98
2022-11-29T22:34:30.892Z,27.23
2022-11-29T22:36:59.319Z,38.80
2022-11-29T22:39:27.928Z,30.25
2022-11-29T22:41:56.315Z,25.90
2022-11-29T22:44:25.595Z,22.52
2022-11-29T22:46:54.380Z,53.20
2022-11-29T22:49:23.024Z,41.20
2022-11-29T22:51:51.629Z,43.88
2022-11-29T22:54:20.031Z,60.58
2022-11-29T22:56:48.923Z,71.95
2022-11-29T22:59:17.330Z,76.30
2022-11-29T23:01:45.753Z,70.50
2022-11-29T23:04:14.339Z,52.90
2022-11-29T23:06:45.352Z,64.60
2022-11-29T23:09:18.164Z,53.45
2022-11-29T23:11:50.280Z,62.97
2022-11-29T23:14:19.735Z,57.22
2022-11-29T23:16:47.874Z,66.82
2022-11-29T23:19:17.972Z,66.95
2022-11-29T23:21:46.599Z,75.45
2022-11-29T23:24:16.612Z,61.22
2022-11-29T23:26:48.230Z,76.40
2022-11-29T23:29:19.285Z,84.72
2022-11-29T23:31:49.471Z,64.43
2022-11-29T23:34:17.928Z,58.92
2022-11-29T23:36:51.339Z,79.53
2022-11-29T23:39:21.508Z,89.53
2022-11-29T23:41:49.840Z,69.22
2022-11-29T23:44:18.082Z,68.47
2022-11-29T23:46:46.932Z,68.00
2022-11-29T23:49:15.502Z,63.40
2022-11-29T23:51:43.850Z,59.33
2022-11-29T23:54:12.088Z,55.05
2022-11-29T23:56:40.480Z,52.10
2022-11-29T23:59:08.628Z,58.70
